Time;durP1;ratioP1;P1;durP2;ratioP2;P2;SDS_P1;SDS_P2;PMS_P1;PMS_P2;Temp;Humidity;BMP_temperature;BMP_pressure;BME280_temperature;BME280_humidity;BME280_pressure;Samples;Min_cycle;Max_cycle;Signal;HPM_P1;HPM_P2
2022/08/22 00:01:23;;;;;;;2.43;1.73;;;16.10;99.90;;;;;;5028563;28;20612;-53
2022/08/22 00:04:03;;;;;;;2.33;1.67;;;16.20;99.90;;;;;;5029440;28;20206;-54
2022/08/22 00:06:37;;;;;;;1.60;1.57;;;16.20;99.90;;;;;;5029587;28;20214;-53
2022/08/22 00:09:17;;;;;;;2.70;1.80;;;16.20;99.90;;;;;;5034110;28;20207;-54
2022/08/22 00:11:52;;;;;;;1.90;1.80;;;16.10;99.90;;;;;;5034041;28;20205;-54
2022/08/22 00:14:24;;;;;;;3.03;1.67;;;16.10;99.90;;;;;;5024662;28;20234;-54
2022/08/22 00:17:00;;;;;;;1.20;1.20;;;16.00;99.90;;;;;;5033552;28;20234;-53
2022/08/22 00:19:37;;;;;;;1.77;1.67;;;16.00;99.90;;;;;;5033713;28;20208;-54
2022/08/22 00:22:12;;;;;;;1.83;1.83;;;16.00;99.90;;;;;;5024598;28;20210;-54
2022/08/22 00:24:46;;;;;;;1.10;1.10;;;16.00;99.90;;;;;;5032465;28;20222;-53
2022/08/22 00:27:20;;;;;;;1.37;1.27;;;16.00;99.90;;;;;;5033680;28;20264;-54
2022/08/22 00:29:52;;;;;;;1.23;1.23;;;15.90;99.90;;;;;;5033560;28;20230;-54
2022/08/22 00:32:30;;;;;;;1.90;1.80;;;15.90;99.90;;;;;;5032537;28;20253;-54
2022/08/22 00:34:59;;;;;;;1.60;1.50;;;15.90;99.90;;;;;;5032354;28;20634;-53
2022/08/22 00:37:32;;;;;;;2.20;1.33;;;15.80;99.90;;;;;;5025554;28;20249;-53
2022/08/22 00:40:13;;;;;;;1.30;1.20;;;15.80;99.90;;;;;;5033182;28;20195;-54
2022/08/22 00:43:29;;;;;;;3.53;1.90;;;15.90;99.90;;;;;;5032749;28;20202;-53
2022/08/22 00:46:20;;;;;;;1.73;1.73;;;15.90;99.90;;;;;;4989503;28;20261;-54
2022/08/22 00:49:23;;;;;;;2.03;2.03;;;15.80;99.90;;;;;;5031572;28;20290;-53
2022/08/22 00:52:15;;;;;;;1.77;1.73;;;15.80;99.90;;;;;;5033027;28;20618;-53
2022/08/22 00:55:00;;;;;;;1.87;1.83;;;15.70;99.90;;;;;;5029420;28;20264;-53
2022/08/22 00:57:40;;;;;;;2.33;2.13;;;15.70;99.90;;;;;;5028490;28;20194;-53
2022/08/22 01:00:13;;;;;;;2.17;2.17;;;15.60;99.90;;;;;;5031166;28;20674;-54
2022/08/22 01:03:32;;;;;;;2.20;2.10;;;15.60;99.90;;;;;;5020415;28;20230;-53
2022/08/22 01:06:16;;;;;;;2.00;2.00;;;15.60;99.90;;;;;;4952646;28;20228;-54
2022/08/22 01:08:58;;;;;;;2.10;1.97;;;15.50;99.90;;;;;;4952471;28;20298;-54
2022/08/22 01:11:42;;;;;;;3.00;2.67;;;15.50;99.90;;;;;;5003553;28;20199;-54
2022/08/22 01:14:24;;;;;;;2.10;2.00;;;15.50;99.90;;;;;;5032576;28;20202;-53
2022/08/22 01:17:06;;;;;;;2.00;2.00;;;15.50;99.90;;;;;;5032516;28;20234;-53
2022/08/22 01:20:07;;;;;;;2.30;2.20;;;15.60;99.90;;;;;;5032525;28;20618;-54
2022/08/22 01:23:05;;;;;;;2.47;2.33;;;15.70;99.90;;;;;;5030824;28;20734;-53
2022/08/22 01:26:15;;;;;;;2.73;2.53;;;15.70;99.90;;;;;;5028312;28;20218;-54
2022/08/22 01:29:16;;;;;;;2.20;2.13;;;15.70;99.90;;;;;;5023150;28;20213;-54
2022/08/22 01:32:23;;;;;;;2.40;2.30;;;15.70;99.90;;;;;;5026876;28;20216;-53
2022/08/22 01:35:15;;;;;;;2.63;2.43;;;15.70;99.90;;;;;;5032247;28;21881;-53
2022/08/22 01:37:58;;;;;;;2.27;2.17;;;15.60;99.90;;;;;;5029398;28;20572;-53
2022/08/22 01:40:52;;;;;;;2.47;2.17;;;15.50;99.90;;;;;;5031340;28;20194;-53
2022/08/22 01:43:30;;;;;;;2.07;1.90;;;15.50;99.90;;;;;;5024451;28;20206;-53
2022/08/22 01:46:14;;;;;;;2.10;1.73;;;15.40;99.90;;;;;;5031220;28;20226;-54
2022/08/22 01:48:46;;;;;;;2.00;1.90;;;15.40;99.90;;;;;;5022693;28;20195;-53
2022/08/22 01:51:21;;;;;;;2.87;1.80;;;15.30;99.90;;;;;;5031948;28;20203;-53
2022/08/22 01:53:58;;;;;;;2.40;1.70;;;15.30;99.90;;;;;;5031782;28;20228;-53
2022/08/22 01:56:31;;;;;;;1.50;1.50;;;15.20;99.90;;;;;;5026981;28;20279;-53
2022/08/22 01:59:01;;;;;;;1.73;1.63;;;15.20;99.90;;;;;;5031973;28;20290;-53
2022/08/22 02:01:52;;;;;;;2.00;1.90;;;15.20;99.90;;;;;;5030010;28;20253;-53
2022/08/22 02:04:37;;;;;;;1.83;1.73;;;15.20;99.90;;;;;;5025988;28;20203;-53
2022/08/22 02:07:13;;;;;;;1.80;1.77;;;15.20;99.90;;;;;;5031855;28;20404;-54
2022/08/22 02:09:46;;;;;;;1.90;1.70;;;15.20;99.90;;;;;;5031789;28;20206;-54
2022/08/22 02:12:32;;;;;;;1.60;1.60;;;15.10;99.90;;;;;;5025326;28;20199;-53
2022/08/22 02:15:07;;;;;;;1.90;1.80;;;15.10;99.90;;;;;;5023239;28;20280;-53
2022/08/22 02:17:48;;;;;;;1.53;1.53;;;15.00;99.90;;;;;;5018753;28;20214;-54
2022/08/22 02:20:23;;;;;;;3.17;1.67;;;14.90;99.90;;;;;;5027604;28;20737;-53
2022/08/22 02:23:00;;;;;;;3.53;1.50;;;14.90;99.90;;;;;;5029813;28;20691;-53
2022/08/22 02:25:33;;;;;;;1.80;1.70;;;15.00;99.90;;;;;;5028488;28;20221;-54
2022/08/22 02:28:07;;;;;;;1.97;1.53;;;14.90;99.90;;;;;;5024075;28;20203;-53
2022/08/22 02:30:46;;;;;;;1.50;1.50;;;14.90;99.90;;;;;;5026120;28;20660;-54
2022/08/22 02:33:22;;;;;;;2.20;1.47;;;15.00;99.90;;;;;;5023944;28;20198;-54
2022/08/22 02:35:54;;;;;;;2.10;2.00;;;15.00;99.90;;;;;;5029980;28;20210;-54
2022/08/22 02:38:29;;;;;;;2.17;1.97;;;15.00;99.90;;;;;;5030377;28;20286;-53
2022/08/22 02:41:07;;;;;;;2.00;1.90;;;15.00;99.90;;;;;;5025087;28;20213;-54
2022/08/22 02:43:42;;;;;;;1.33;1.23;;;15.00;99.90;;;;;;5025787;28;20745;-53
2022/08/22 02:46:21;;;;;;;1.90;1.80;;;15.00;99.90;;;;;;5025868;28;20222;-53
2022/08/22 02:48:54;;;;;;;1.20;1.20;;;15.00;99.90;;;;;;5011128;28;20285;-53
2022/08/22 02:51:31;;;;;;;1.50;1.50;;;15.10;99.90;;;;;;5029336;28;20195;-53
2022/08/22 02:54:10;;;;;;;1.57;1.57;;;15.10;99.90;;;;;;5012559;28;20209;-53
2022/08/22 02:56:43;;;;;;;1.90;1.80;;;15.10;99.90;;;;;;5023262;28;20986;-54
2022/08/22 02:59:23;;;;;;;1.23;1.23;;;15.10;99.90;;;;;;5023971;28;20226;-54
2022/08/22 03:01:50;;;;;;;1.17;1.17;;;15.10;99.90;;;;;;5016217;28;20700;-53
2022/08/22 03:04:45;;;;;;;2.03;1.93;;;15.00;99.90;;;;;;5014436;28;20230;-54
2022/08/22 03:07:25;;;;;;;3.47;1.73;;;15.00;99.90;;;;;;5024600;28;20281;-54
2022/08/22 03:10:08;;;;;;;2.17;1.83;;;14.90;99.90;;;;;;5014831;28;20195;-53
2022/08/22 03:12:44;;;;;;;1.97;1.87;;;14.90;99.90;;;;;;5022144;28;20200;-53
2022/08/22 03:15:19;;;;;;;1.37;1.33;;;14.80;99.90;;;;;;5025914;28;20643;-53
2022/08/22 03:17:52;;;;;;;1.80;1.57;;;14.80;99.90;;;;;;5014416;28;20637;-54
2022/08/22 03:20:37;;;;;;;1.73;1.73;;;14.80;99.90;;;;;;5014450;28;20199;-53
2022/08/22 03:23:09;;;;;;;1.40;1.40;;;14.80;99.90;;;;;;5014441;28;20609;-53
2022/08/22 03:25:45;;;;;;;1.83;1.73;;;14.70;99.90;;;;;;5032222;28;20702;-53
2022/08/22 03:28:15;;;;;;;2.33;2.20;;;14.70;99.90;;;;;;5016919;28;20617;-53
2022/08/22 03:30:45;;;;;;;1.80;1.70;;;14.70;99.90;;;;;;5015457;28;20261;-53
2022/08/22 03:33:18;;;;;;;2.50;2.30;;;14.70;99.90;;;;;;5013861;28;20724;-53
2022/08/22 03:35:59;;;;;;;2.43;1.77;;;14.70;99.90;;;;;;5024744;28;20777;-54
2022/08/22 03:38:38;;;;;;;1.90;1.80;;;14.70;99.90;;;;;;5032702;28;20540;-54
2022/08/22 03:41:35;;;;;;;1.50;1.33;;;14.70;99.90;;;;;;5015007;28;20211;-53
2022/08/22 03:44:26;;;;;;;1.53;1.43;;;14.60;99.90;;;;;;5013939;28;20196;-53
2022/08/22 03:47:19;;;;;;;1.50;1.50;;;14.70;99.90;;;;;;5013925;28;20281;-53
2022/08/22 03:50:32;;;;;;;1.60;1.50;;;14.70;99.90;;;;;;5013815;28;20234;-54
2022/08/22 03:53:37;;;;;;;1.30;1.30;;;14.70;99.90;;;;;;4952264;29;20978;-54
2022/08/22 03:56:31;;;;;;;2.00;1.90;;;14.60;99.90;;;;;;4951378;28;20217;-53
2022/08/22 03:59:30;;;;;;;2.23;2.23;;;14.60;99.90;;;;;;5004188;28;20284;-53
2022/08/22 04:02:14;;;;;;;2.73;1.87;;;14.60;99.90;;;;;;5013840;28;20200;-54
2022/08/22 04:05:23;;;;;;;2.60;2.10;;;14.60;99.90;;;;;;5013220;28;20710;-53
2022/08/22 04:08:07;;;;;;;2.17;2.07;;;14.60;99.90;;;;;;5013597;28;20195;-53
2022/08/22 04:10:51;;;;;;;1.90;1.80;;;14.50;99.90;;;;;;5015631;28;20230;-54
2022/08/22 04:13:54;;;;;;;1.63;1.63;;;14.60;99.90;;;;;;5017549;28;20261;-53
2022/08/22 04:16:54;;;;;;;2.30;2.10;;;14.50;99.90;;;;;;5031391;28;20340;-53
2022/08/22 04:19:45;;;;;;;1.40;1.30;;;14.40;99.90;;;;;;5031915;28;20195;-54
2022/08/22 04:22:32;;;;;;;1.80;1.70;;;14.40;99.90;;;;;;5031805;28;20191;-53
2022/08/22 04:25:03;;;;;;;2.30;1.57;;;14.50;99.90;;;;;;5022392;28;20218;-53
2022/08/22 04:27:37;;;;;;;1.67;1.57;;;14.40;99.90;;;;;;5029223;28;20198;-54
2022/08/22 04:30:13;;;;;;;1.80;1.70;;;14.40;99.90;;;;;;5033581;28;20248;-53
2022/08/22 04:32:45;;;;;;;2.07;1.97;;;14.40;99.90;;;;;;5033316;28;20706;-54
2022/08/22 04:35:29;;;;;;;1.70;1.53;;;14.40;99.90;;;;;;5033442;28;20227;-53
2022/08/22 04:38:00;;;;;;;2.27;2.07;;;14.40;99.90;;;;;;5032808;28;20852;-53
2022/08/22 04:40:33;;;;;;;2.60;2.50;;;14.40;99.90;;;;;;5024872;28;20657;-53
2022/08/22 04:43:07;;;;;;;2.47;2.37;;;14.40;99.90;;;;;;5031157;28;20228;-53
2022/08/22 04:45:41;;;;;;;2.23;2.23;;;14.40;99.90;;;;;;5018994;28;20221;-54
2022/08/22 04:48:14;;;;;;;2.37;2.10;;;14.40;99.90;;;;;;5015408;28;20203;-53
2022/08/22 04:50:45;;;;;;;2.07;1.97;;;14.40;99.90;;;;;;5018194;28;20200;-53
2022/08/22 04:53:25;;;;;;;1.90;1.90;;;14.40;99.90;;;;;;5013432;28;20703;-54
2022/08/22 04:56:03;;;;;;;2.63;2.17;;;14.50;99.90;;;;;;5018247;28;20627;-54
2022/08/22 04:58:41;;;;;;;2.00;1.90;;;14.50;99.90;;;;;;5030691;28;20260;-53
2022/08/22 05:01:20;;;;;;;2.80;2.60;;;14.60;99.90;;;;;;5012467;28;20273;-54
2022/08/22 05:03:54;;;;;;;2.37;2.20;;;14.60;99.90;;;;;;5012179;28;20230;-53
2022/08/22 05:06:26;;;;;;;2.43;2.33;;;14.70;99.90;;;;;;5023484;28;20305;-53
2022/08/22 05:08:55;;;;;;;3.37;3.23;;;14.70;99.90;;;;;;5017614;28;20269;-53
2022/08/22 05:11:24;;;;;;;3.30;3.07;;;14.90;99.90;;;;;;5015452;28;20200;-54
2022/08/22 05:13:56;;;;;;;3.30;3.10;;;15.00;99.90;;;;;;5012054;28;20296;-53
2022/08/22 05:16:28;;;;;;;3.50;3.00;;;15.10;99.90;;;;;;5012043;28;20262;-54
2022/08/22 05:19:01;;;;;;;2.80;2.70;;;15.20;99.90;;;;;;5011640;28;20199;-53
2022/08/22 05:21:32;;;;;;;3.70;3.50;;;15.30;99.90;;;;;;5014732;28;20576;-53
2022/08/22 05:24:04;;;;;;;3.27;2.80;;;15.50;99.90;;;;;;5023903;28;20209;-54
2022/08/22 05:26:37;;;;;;;2.43;2.33;;;15.80;99.90;;;;;;5012214;28;20223;-53
2022/08/22 05:29:07;;;;;;;1.90;1.90;;;16.40;99.90;;;;;;5018535;28;20206;-53
2022/08/22 05:31:41;;;;;;;2.93;2.73;;;17.30;99.90;;;;;;5012253;28;20214;-53
2022/08/22 05:34:13;;;;;;;3.00;2.90;;;18.20;99.90;;;;;;5016086;28;20261;-54
2022/08/22 05:36:45;;;;;;;5.73;2.67;;;19.00;99.90;;;;;;5021255;28;20246;-54
2022/08/22 05:39:17;;;;;;;4.03;2.23;;;19.60;99.90;;;;;;5015251;28;20205;-54
2022/08/22 05:41:44;;;;;;;2.07;1.97;;;20.20;99.90;;;;;;5030248;28;20202;-54
2022/08/22 05:44:19;;;;;;;1.80;1.70;;;20.70;99.90;;;;;;5029679;28;20710;-54
2022/08/22 05:46:56;;;;;;;1.77;1.67;;;20.90;99.90;;;;;;5011804;28;20226;-54
2022/08/22 05:49:35;;;;;;;1.47;1.30;;;21.30;99.90;;;;;;5022991;28;20297;-53
2022/08/22 05:52:09;;;;;;;2.30;1.90;;;21.90;99.90;;;;;;5021738;28;20202;-54
2022/08/22 05:54:48;;;;;;;2.13;1.50;;;22.40;99.90;;;;;;5020956;28;20241;-54
2022/08/22 05:57:23;;;;;;;1.90;1.80;;;23.00;99.90;;;;;;5021467;28;20307;-54
2022/08/22 05:59:59;;;;;;;1.70;1.60;;;23.50;99.90;;;;;;5020941;28;20198;-53
2022/08/22 06:02:47;;;;;;;1.40;1.40;;;24.00;99.90;;;;;;5023003;28;20210;-54
2022/08/22 06:05:20;;;;;;;1.47;1.37;;;24.10;99.90;;;;;;5023737;28;20297;-54
2022/08/22 06:07:50;;;;;;;1.57;1.40;;;24.70;99.90;;;;;;5020653;28;20218;-54
2022/08/22 06:10:25;;;;;;;1.23;1.13;;;24.70;99.90;;;;;;5020938;28;20199;-54
2022/08/22 06:13:00;;;;;;;1.50;1.47;;;24.80;99.90;;;;;;5012746;28;20199;-54
2022/08/22 06:15:34;;;;;;;1.57;1.57;;;25.30;99.90;;;;;;5022441;28;20703;-53
2022/08/22 06:18:09;;;;;;;1.57;1.47;;;25.50;99.90;;;;;;5027704;28;20206;-54
2022/08/22 06:20:39;;;;;;;2.50;2.30;;;25.90;99.90;;;;;;5014507;28;20198;-53
2022/08/22 06:23:08;;;;;;;1.73;1.40;;;25.60;99.90;;;;;;5011217;28;20277;-54
2022/08/22 06:25:38;;;;;;;1.30;1.20;;;26.20;99.90;;;;;;5011078;28;20326;-54
2022/08/22 06:28:17;;;;;;;2.30;1.53;;;26.60;99.90;;;;;;5011198;28;20720;-54
2022/08/22 06:30:46;;;;;;;2.80;1.80;;;26.80;99.90;;;;;;5021285;28;20230;-54
2022/08/22 06:33:21;;;;;;;1.50;1.40;;;27.10;99.90;;;;;;5029120;28;20195;-53
2022/08/22 06:38:53;;;;;;;1.50;1.50;;;26.80;99.90;;;;;;5021546;28;20361;-54
2022/08/22 06:41:24;;;;;;;1.33;1.23;;;26.80;99.90;;;;;;5022791;28;20257;-54
2022/08/22 06:43:53;;;;;;;2.08;1.20;;;27.40;99.90;;;;;;5033300;28;20226;-53
2022/08/22 06:46:22;;;;;;;1.20;1.10;;;27.50;99.90;;;;;;5033248;28;20284;-54
2022/08/22 06:48:51;;;;;;;1.17;1.13;;;28.20;99.90;;;;;;5034982;28;20632;-54
2022/08/22 06:51:20;;;;;;;1.15;1.15;;;28.90;99.90;;;;;;5035250;28;20202;-54
2022/08/22 06:53:50;;;;;;;1.23;1.23;;;29.40;99.90;;;;;;5034312;28;20210;-54
2022/08/22 06:56:23;;;;;;;1.10;1.00;;;29.60;99.90;;;;;;5030019;28;20223;-54
2022/08/22 06:58:55;;;;;;;4.38;1.10;;;30.00;99.90;;;;;;5018433;28;20202;-54
2022/08/22 07:01:24;;;;;;;1.35;1.00;;;30.20;99.90;;;;;;5033249;28;20268;-54
2022/08/22 07:03:57;;;;;;;1.15;1.10;;;30.30;99.90;;;;;;5032759;28;20198;-54
2022/08/22 07:06:30;;;;;;;0.90;0.90;;;30.40;99.90;;;;;;5032262;28;20284;-54
2022/08/22 07:08:58;;;;;;;1.95;1.00;;;30.30;99.90;;;;;;5031217;28;20228;-54
2022/08/22 07:11:29;;;;;;;1.00;1.00;;;30.60;99.90;;;;;;5028424;28;20299;-54
2022/08/22 07:14:02;;;;;;;1.20;0.98;;;30.70;99.90;;;;;;5030461;28;20209;-54
2022/08/22 07:16:32;;;;;;;0.80;0.80;;;30.70;99.70;;;;;;5025856;28;20242;-54
2022/08/22 07:19:01;;;;;;;0.88;0.80;;;30.30;99.90;;;;;;5019131;28;20226;-54
2022/08/22 07:21:31;;;;;;;1.00;0.63;;;30.50;99.90;;;;;;5018273;28;20256;-54
2022/08/22 07:24:00;;;;;;;0.70;0.70;;;29.90;99.90;;;;;;5014179;28;20219;-54
2022/08/22 07:26:33;;;;;;;0.88;0.80;;;29.70;99.90;;;;;;5021377;28;20693;-54
2022/08/22 07:29:07;;;;;;;0.85;0.85;;;30.00;99.90;;;;;;5016664;28;20199;-54
2022/08/22 07:31:39;;;;;;;1.85;1.15;;;30.10;99.90;;;;;;5017469;28;20198;-54
2022/08/22 07:34:26;;;;;;;0.70;0.70;;;30.20;99.90;;;;;;5024067;28;20616;-54
2022/08/22 07:37:00;;;;;;;1.00;0.95;;;30.20;99.90;;;;;;5014856;28;20448;-54
2022/08/22 07:39:33;;;;;;;1.63;1.02;;;30.50;98.70;;;;;;5027169;28;20698;-53
2022/08/22 07:42:09;;;;;;;0.80;0.80;;;30.40;99.10;;;;;;5033555;28;20238;-54
2022/08/22 07:44:45;;;;;;;1.10;1.10;;;30.70;98.30;;;;;;5033292;28;20738;-54
2022/08/22 07:47:17;;;;;;;1.33;0.80;;;30.70;99.90;;;;;;5034231;28;20261;-54
2022/08/22 07:49:52;;;;;;;0.98;0.95;;;30.90;99.30;;;;;;5034279;28;20664;-54
2022/08/22 07:52:21;;;;;;;0.70;0.70;;;30.80;99.00;;;;;;5034222;28;20216;-54
2022/08/22 07:54:53;;;;;;;3.17;0.90;;;31.00;98.10;;;;;;5033875;28;20734;-54
2022/08/22 07:57:26;;;;;;;1.73;0.90;;;30.90;98.00;;;;;;5032081;28;20297;-54
2022/08/22 07:59:56;;;;;;;0.98;0.90;;;31.00;98.50;;;;;;5026866;28;20625;-54
2022/08/22 08:02:24;;;;;;;1.27;1.20;;;31.20;98.50;;;;;;5033138;28;20669;-54
2022/08/22 08:04:56;;;;;;;1.15;1.13;;;30.90;97.80;;;;;;5032595;28;20207;-54
2022/08/22 08:07:27;;;;;;;1.48;1.08;;;30.50;97.80;;;;;;5021619;28;20218;-55
2022/08/22 08:10:04;;;;;;;2.05;0.93;;;30.20;99.50;;;;;;5019595;28;20684;-54
2022/08/22 08:12:35;;;;;;;0.80;0.80;;;30.50;98.60;;;;;;5018787;28;20244;-54
2022/08/22 08:15:06;;;;;;;0.93;0.75;;;30.60;99.50;;;;;;5024943;28;20300;-54
2022/08/22 08:17:35;;;;;;;0.75;0.75;;;30.60;99.00;;;;;;5025370;28;20214;-54
2022/08/22 08:20:08;;;;;;;1.52;0.82;;;30.80;99.90;;;;;;5022183;28;20253;-55
2022/08/22 08:22:37;;;;;;;0.80;0.80;;;30.90;98.30;;;;;;5013088;28;21230;-54
2022/08/22 08:25:07;;;;;;;1.10;1.10;;;31.00;98.50;;;;;;5019671;28;20214;-54
2022/08/22 08:30:34;;;;;;;0.80;0.80;;;30.80;98.00;;;;;;5025716;28;20209;-54
2022/08/22 08:33:07;;;;;;;1.10;1.00;;;30.90;99.60;;;;;;5030847;28;20213;-54
2022/08/22 08:35:39;;;;;;;0.95;0.95;;;31.20;98.20;;;;;;5029929;28;20250;-54
2022/08/22 08:38:13;;;;;;;1.15;0.80;;;31.50;96.10;;;;;;5032236;28;20198;-54
2022/08/22 08:41:22;;;;;;;2.47;0.90;;;31.40;97.90;;;;;;5029249;28;20198;-54
2022/08/22 08:44:01;;;;;;;1.13;1.13;;;31.40;97.60;;;;;;4979347;28;20210;-54
2022/08/22 08:46:50;;;;;;;2.08;0.93;;;31.60;97.70;;;;;;5030977;28;20218;-54
2022/08/22 08:50:01;;;;;;;1.40;1.27;;;31.60;97.60;;;;;;5025928;28;20248;-54
2022/08/22 08:52:46;;;;;;;1.25;1.15;;;31.20;97.60;;;;;;4989673;28;20206;-53
2022/08/22 08:55:26;;;;;;;1.10;1.08;;;31.60;96.90;;;;;;5025972;28;20268;-54
2022/08/22 08:58:11;;;;;;;0.80;0.80;;;31.90;95.70;;;;;;5029169;28;20260;-54
2022/08/22 09:01:02;;;;;;;1.08;0.80;;;31.90;96.50;;;;;;5027411;28;20252;-54
2022/08/22 09:03:55;;;;;;;1.02;1.02;;;31.80;97.00;;;;;;5027829;28;20205;-54
2022/08/22 09:06:46;;;;;;;0.85;0.85;;;31.10;97.00;;;;;;5023191;28;20218;-54
2022/08/22 09:09:30;;;;;;;0.88;0.88;;;31.60;96.00;;;;;;5018577;28;20202;-54
2022/08/22 09:12:22;;;;;;;1.20;1.15;;;32.00;95.70;;;;;;5029906;28;20359;-54
2022/08/22 09:15:22;;;;;;;0.75;0.75;;;32.50;95.50;;;;;;5022727;28;20252;-55
2022/08/22 09:18:27;;;;;;;0.85;0.85;;;32.30;94.80;;;;;;5025685;28;20199;-54
2022/08/22 09:21:30;;;;;;;1.40;1.10;;;32.30;94.90;;;;;;4960588;28;20201;-54
2022/08/22 09:24:33;;;;;;;1.10;1.10;;;31.90;95.60;;;;;;5009216;28;20213;-54
2022/08/22 09:27:09;;;;;;;1.42;1.42;;;32.70;94.70;;;;;;5011862;28;20311;-54
2022/08/22 09:29:42;;;;;;;1.63;1.60;;;32.70;96.30;;;;;;5011460;28;20278;-54
2022/08/22 09:32:16;;;;;;;1.63;1.63;;;32.10;96.50;;;;;;5016083;28;20294;-54
2022/08/22 09:34:58;;;;;;;1.90;1.80;;;32.60;96.30;;;;;;5021145;28;20277;-54
2022/08/22 09:37:34;;;;;;;1.77;1.77;;;31.50;98.10;;;;;;5017907;28;20202;-54
2022/08/22 09:40:07;;;;;;;2.97;1.88;;;30.70;98.80;;;;;;5011385;28;20294;-54
2022/08/22 09:42:44;;;;;;;2.30;2.20;;;31.30;99.80;;;;;;5030115;28;20209;-54
2022/08/22 09:45:41;;;;;;;2.28;2.08;;;30.90;99.40;;;;;;5029439;28;20226;-54
2022/08/22 09:48:24;;;;;;;2.40;1.92;;;29.70;99.90;;;;;;5024475;28;20226;-54
2022/08/22 09:51:02;;;;;;;2.28;2.17;;;29.70;99.90;;;;;;5023526;28;20206;-54
2022/08/22 09:54:01;;;;;;;2.13;1.95;;;28.70;99.90;;;;;;5021931;28;20202;-54
2022/08/22 09:56:36;;;;;;;1.52;1.42;;;29.00;99.90;;;;;;5020435;28;20229;-54
2022/08/22 09:59:09;;;;;;;2.80;1.75;;;29.90;99.90;;;;;;5020530;28;20630;-54
2022/08/22 10:01:43;;;;;;;1.30;1.30;;;30.50;99.10;;;;;;5015765;28;20195;-54
2022/08/22 10:04:39;;;;;;;1.60;1.58;;;30.70;99.30;;;;;;5015917;28;20213;-54
2022/08/22 10:07:23;;;;;;;1.35;1.35;;;29.90;98.30;;;;;;5011511;28;20195;-54
2022/08/22 10:10:06;;;;;;;1.13;1.10;;;29.90;99.90;;;;;;5012005;28;20712;-54
2022/08/22 10:12:44;;;;;;;2.20;1.45;;;29.50;99.00;;;;;;5019335;28;20451;-54
2022/08/22 10:15:22;;;;;;;2.00;1.60;;;29.50;99.60;;;;;;5011591;28;20222;-54
2022/08/22 10:18:01;;;;;;;1.40;1.40;;;29.30;98.60;;;;;;5028960;28;20217;-54
2022/08/22 10:20:31;;;;;;;1.45;1.30;;;29.60;99.90;;;;;;5011790;28;20199;-54
2022/08/22 10:23:13;;;;;;;1.33;1.30;;;29.60;99.80;;;;;;5021181;28;20210;-53
2022/08/22 10:25:45;;;;;;;1.90;1.80;;;30.10;98.60;;;;;;5026240;28;20288;-54
2022/08/22 10:28:24;;;;;;;2.28;2.17;;;30.60;99.90;;;;;;5017165;28;20222;-56
2022/08/22 10:31:10;;;;;;;2.35;1.50;;;31.10;97.40;;;;;;5029927;28;20268;-54
2022/08/22 10:33:42;;;;;;;1.58;1.48;;;30.80;97.20;;;;;;5021314;28;20202;-54
2022/08/22 10:36:12;;;;;;;3.70;2.05;;;30.40;97.40;;;;;;5030854;28;20275;-54
2022/08/22 10:38:45;;;;;;;1.40;1.35;;;30.60;96.20;;;;;;5030027;28;20245;-54
2022/08/22 10:41:24;;;;;;;1.50;1.50;;;30.50;99.40;;;;;;5022132;28;20199;-54
2022/08/22 10:43:53;;;;;;;1.98;1.92;;;30.60;99.40;;;;;;5030594;28;20217;-54
2022/08/22 10:46:32;;;;;;;2.03;1.92;;;30.60;98.20;;;;;;5029160;28;20650;-54
2022/08/22 10:49:01;;;;;;;1.35;1.25;;;30.50;98.00;;;;;;5023937;28;20283;-54
2022/08/22 10:51:39;;;;;;;1.95;1.85;;;30.30;98.00;;;;;;5010433;28;20203;-54
2022/08/22 10:54:20;;;;;;;1.95;1.85;;;30.10;99.00;;;;;;5026740;28;20194;-54
2022/08/22 10:56:51;;;;;;;60.25;9.80;;;29.50;99.90;;;;;;5013966;28;20227;-54
2022/08/22 10:59:33;;;;;;;2.30;2.10;;;29.00;99.90;;;;;;5010434;28;20210;-54
2022/08/22 11:02:24;;;;;;;3.50;2.10;;;28.50;99.60;;;;;;5010322;28;20200;-54
2022/08/22 11:05:29;;;;;;;2.30;1.95;;;28.50;99.90;;;;;;5015923;28;20282;-55
2022/08/22 11:08:20;;;;;;;3.13;2.75;;;28.00;99.90;;;;;;5028519;28;20307;-55
2022/08/22 11:11:05;;;;;;;2.03;1.98;;;27.70;99.90;;;;;;4998631;28;20206;-55
2022/08/22 11:13:40;;;;;;;1.95;1.85;;;27.60;99.90;;;;;;5012853;28;20206;-55
2022/08/22 11:16:29;;;;;;;2.28;2.17;;;27.60;99.90;;;;;;5025084;28;20641;-55
2022/08/22 11:19:22;;;;;;;1.95;1.95;;;27.40;99.90;;;;;;5013859;28;20187;-55
2022/08/22 11:22:02;;;;;;;2.63;2.35;;;27.70;99.90;;;;;;5032221;28;20241;-55
2022/08/22 11:25:20;;;;;;;2.80;2.60;;;27.30;99.90;;;;;;5032004;28;20233;-55
2022/08/22 11:28:01;;;;;;;2.25;2.15;;;27.30;99.90;;;;;;4941488;28;20222;-54
2022/08/22 11:30:35;;;;;;;2.22;2.13;;;27.10;99.90;;;;;;5007051;28;20198;-55
2022/08/22 11:33:25;;;;;;;5.32;2.38;;;27.20;99.90;;;;;;5027917;28;20858;-55
2022/08/22 11:36:04;;;;;;;1.73;1.73;;;27.10;99.90;;;;;;5023154;28;20318;-55
2022/08/22 11:38:38;;;;;;;2.30;2.20;;;26.80;99.90;;;;;;5017650;28;20650;-54
2022/08/22 11:41:12;;;;;;;2.45;1.80;;;26.50;99.90;;;;;;5022822;28;20194;-55
2022/08/22 11:44:01;;;;;;;3.07;2.80;;;26.50;99.90;;;;;;5013404;28;20210;-55
2022/08/22 11:46:31;;;;;;;2.75;2.65;;;26.40;99.90;;;;;;5020104;28;20358;-55
2022/08/22 11:49:32;;;;;;;2.10;2.10;;;26.50;99.90;;;;;;5015465;28;20218;-55
2022/08/22 11:52:08;;;;;;;2.47;2.37;;;26.20;99.90;;;;;;5013508;28;20191;-54
2022/08/22 11:55:02;;;;;;;2.77;2.50;;;26.20;99.90;;;;;;5025356;28;20202;-55
2022/08/22 11:57:35;;;;;;;2.77;2.10;;;26.20;99.90;;;;;;5031648;28;20199;-55
2022/08/22 12:00:17;;;;;;;2.67;2.58;;;26.00;99.90;;;;;;5031257;28;20222;-55
2022/08/22 12:03:11;;;;;;;2.42;2.17;;;26.00;99.90;;;;;;5019387;28;20202;-55
2022/08/22 12:05:45;;;;;;;3.40;3.15;;;26.10;99.90;;;;;;5025306;28;20659;-55
2022/08/22 12:08:23;;;;;;;2.10;2.00;;;26.10;99.90;;;;;;5023056;28;21427;-55
2022/08/22 12:10:57;;;;;;;2.10;2.00;;;26.10;99.90;;;;;;5023351;28;20205;-55
2022/08/22 12:13:49;;;;;;;2.72;2.53;;;26.20;99.90;;;;;;5019064;28;20682;-54
2022/08/22 12:16:22;;;;;;;1.77;1.77;;;26.20;99.90;;;;;;5019800;28;20230;-54
2022/08/22 12:18:55;;;;;;;2.90;2.35;;;26.30;99.90;;;;;;5025117;28;20294;-54
2022/08/22 12:21:56;;;;;;;3.63;2.43;;;26.10;99.90;;;;;;5012367;28;20261;-55
2022/08/22 12:24:42;;;;;;;7.25;2.35;;;26.20;99.90;;;;;;5029535;28;20276;-54
2022/08/22 12:27:28;;;;;;;2.65;2.25;;;26.20;99.90;;;;;;5014035;28;20202;-54
2022/08/22 12:30:07;;;;;;;2.03;1.93;;;26.10;99.90;;;;;;5030607;28;20730;-54
2022/08/22 12:33:08;;;;;;;2.63;2.23;;;25.90;99.90;;;;;;5013727;28;20198;-54
2022/08/22 12:35:48;;;;;;;3.27;2.53;;;26.00;99.90;;;;;;5018477;28;20241;-55
2022/08/22 12:38:42;;;;;;;2.53;2.27;;;26.20;99.90;;;;;;5030626;28;20190;-54
2022/08/22 12:41:33;;;;;;;2.47;2.27;;;26.10;99.90;;;;;;5022691;28;20199;-54
2022/08/22 12:44:12;;;;;;;2.50;2.40;;;25.90;99.90;;;;;;5025991;28;20206;-55
2022/08/22 12:46:50;;;;;;;2.53;2.43;;;26.00;99.90;;;;;;5021098;28;20778;-54
2022/08/22 12:49:30;;;;;;;2.23;2.00;;;26.00;99.90;;;;;;5013184;28;20289;-55
2022/08/22 12:52:09;;;;;;;2.83;2.63;;;26.10;99.90;;;;;;5031613;28;20221;-55
2022/08/22 12:54:55;;;;;;;5.60;3.17;;;26.10;99.90;;;;;;5031509;28;20252;-54
2022/08/22 12:57:35;;;;;;;2.57;2.47;;;26.10;99.90;;;;;;5026068;28;20205;-54
2022/08/22 13:00:10;;;;;;;2.50;2.40;;;26.00;99.90;;;;;;5022331;28;20198;-54
2022/08/22 13:02:40;;;;;;;2.30;2.20;;;26.00;99.90;;;;;;5028863;28;20249;-54
2022/08/22 13:05:12;;;;;;;4.73;2.27;;;26.00;99.90;;;;;;5030907;28;20219;-54
2022/08/22 13:07:42;;;;;;;2.42;2.25;;;25.90;99.90;;;;;;5029115;28;20204;-55
2022/08/22 13:10:48;;;;;;;2.00;1.90;;;25.90;99.90;;;;;;5030545;28;20190;-55
2022/08/22 13:13:26;;;;;;;2.60;2.50;;;26.00;99.90;;;;;;5013695;28;20256;-54
2022/08/22 13:15:57;;;;;;;1.93;1.87;;;26.00;99.90;;;;;;5031050;28;20296;-55
2022/08/22 13:18:30;;;;;;;2.80;2.60;;;26.00;99.90;;;;;;5022890;28;20195;-55
2022/08/22 13:21:01;;;;;;;2.30;1.87;;;26.00;99.90;;;;;;5023031;28;20194;-55
2022/08/22 13:23:32;;;;;;;2.23;2.03;;;26.10;99.90;;;;;;5021077;28;20207;-54
2022/08/22 13:26:06;;;;;;;1.92;1.83;;;26.10;99.90;;;;;;5019374;28;20788;-54
2022/08/22 13:28:42;;;;;;;2.60;2.50;;;25.90;99.90;;;;;;5018016;28;20717;-54
2022/08/22 13:31:18;;;;;;;2.47;2.22;;;25.90;99.90;;;;;;5030110;28;20248;-54
2022/08/22 13:33:46;;;;;;;2.33;2.23;;;25.90;99.90;;;;;;5023661;28;20226;-54
2022/08/22 13:36:18;;;;;;;2.37;2.17;;;25.90;99.90;;;;;;5021121;28;20635;-54
2022/08/22 13:38:51;;;;;;;2.28;2.17;;;26.00;99.90;;;;;;5030131;28;20327;-55
2022/08/22 13:41:23;;;;;;;2.40;2.40;;;26.00;99.90;;;;;;5026815;28;20195;-54
2022/08/22 13:44:13;;;;;;;4.15;2.33;;;26.10;99.90;;;;;;5011282;28;20692;-54
2022/08/22 13:46:41;;;;;;;2.43;2.33;;;26.10;99.90;;;;;;5013445;28;20226;-55
2022/08/22 13:49:12;;;;;;;2.30;1.88;;;26.20;99.90;;;;;;5015993;28;20225;-55
2022/08/22 13:51:48;;;;;;;2.28;2.17;;;26.00;99.90;;;;;;5011301;28;20286;-54
2022/08/22 13:54:43;;;;;;;2.70;2.60;;;26.00;99.90;;;;;;5028623;28;20289;-54
2022/08/22 13:57:20;;;;;;;2.83;2.63;;;26.00;99.90;;;;;;5029775;28;20284;-55